sensor_id;sensor_type;location;lat;lon;timestamp;pressure;altitude;pressure_sealevel;temperature;humidity
84145;BME280;74264;48.988;12.040;2024-01-16T00:01:53;96955.75;;;-1.88;80.08
84145;BME280;74264;48.988;12.040;2024-01-16T00:04:19;96955.84;;;-1.90;79.72
84145;BME280;74264;48.988;12.040;2024-01-16T00:06:44;96964.81;;;-1.94;80.06
84145;BME280;74264;48.988;12.040;2024-01-16T00:09:10;96963.72;;;-1.91;79.76
84145;BME280;74264;48.988;12.040;2024-01-16T00:11:42;96966.84;;;-1.86;79.57
84145;BME280;74264;48.988;12.040;2024-01-16T00:14:08;96976.97;;;-1.83;79.50
84145;BME280;74264;48.988;12.040;2024-01-16T00:16:50;96982.41;;;-1.86;79.73
84145;BME280;74264;48.988;12.040;2024-01-16T00:19:16;96985.34;;;-1.80;79.01
84145;BME280;74264;48.988;12.040;2024-01-16T00:21:42;96988.28;;;-1.73;78.51
84145;BME280;74264;48.988;12.040;2024-01-16T00:24:08;96991.84;;;-1.74;78.98
84145;BME280;74264;48.988;12.040;2024-01-16T00:26:34;96998.00;;;-1.75;79.13
84145;BME280;74264;48.988;12.040;2024-01-16T00:28:59;97002.94;;;-1.72;78.34
84145;BME280;74264;48.988;12.040;2024-01-16T00:31:26;97006.13;;;-1.69;78.12
84145;BME280;74264;48.988;12.040;2024-01-16T00:33:51;97010.38;;;-1.68;78.40
84145;BME280;74264;48.988;12.040;2024-01-16T00:36:17;97004.38;;;-1.68;78.21
84145;BME280;74264;48.988;12.040;2024-01-16T00:38:43;97012.88;;;-1.66;77.98
84145;BME280;74264;48.988;12.040;2024-01-16T00:41:09;97023.00;;;-1.63;77.48
84145;BME280;74264;48.988;12.040;2024-01-16T00:43:34;97018.19;;;-1.57;77.19
84145;BME280;74264;48.988;12.040;2024-01-16T00:46:01;97025.75;;;-1.54;76.75
84145;BME280;74264;48.988;12.040;2024-01-16T00:48:26;97022.19;;;-1.53;76.88
84145;BME280;74264;48.988;12.040;2024-01-16T00:50:52;97024.91;;;-1.54;76.69
84145;BME280;74264;48.988;12.040;2024-01-16T00:53:18;97040.28;;;-1.51;76.45
84145;BME280;74264;48.988;12.040;2024-01-16T00:55:43;97040.34;;;-1.53;76.71
84145;BME280;74264;48.988;12.040;2024-01-16T00:58:09;97044.75;;;-1.53;76.99
84145;BME280;74264;48.988;12.040;2024-01-16T01:00:35;97061.97;;;-1.52;76.84
84145;BME280;74264;48.988;12.040;2024-01-16T01:03:03;97048.28;;;-1.43;75.50
84145;BME280;74264;48.988;12.040;2024-01-16T01:05:29;97052.44;;;-1.41;75.34
84145;BME280;74264;48.988;12.040;2024-01-16T01:07:55;97050.88;;;-1.43;76.03
84145;BME280;74264;48.988;12.040;2024-01-16T01:10:21;97058.22;;;-1.37;74.79
84145;BME280;74264;48.988;12.040;2024-01-16T01:12:47;97050.66;;;-1.40;75.39
84145;BME280;74264;48.988;12.040;2024-01-16T01:15:13;97061.16;;;-1.42;76.43
84145;BME280;74264;48.988;12.040;2024-01-16T01:17:40;97060.66;;;-1.47;76.34
84145;BME280;74264;48.988;12.040;2024-01-16T01:20:08;97064.81;;;-1.44;75.92
84145;BME280;74264;48.988;12.040;2024-01-16T01:22:34;97067.28;;;-1.43;76.02
84145;BME280;74264;48.988;12.040;2024-01-16T01:24:59;97062.09;;;-1.43;75.80
84145;BME280;74264;48.988;12.040;2024-01-16T01:27:25;97074.03;;;-1.40;75.37
84145;BME280;74264;48.988;12.040;2024-01-16T01:29:51;97063.66;;;-1.40;75.43
84145;BME280;74264;48.988;12.040;2024-01-16T01:32:17;97079.31;;;-1.42;75.26
84145;BME280;74264;48.988;12.040;2024-01-16T01:34:42;97070.13;;;-1.46;76.34
84145;BME280;74264;48.988;12.040;2024-01-16T01:37:09;97083.31;;;-1.49;76.52
84145;BME280;74264;48.988;12.040;2024-01-16T01:39:35;97086.63;;;-1.47;76.26
84145;BME280;74264;48.988;12.040;2024-01-16T01:42:00;97087.47;;;-1.46;75.83
84145;BME280;74264;48.988;12.040;2024-01-16T01:44:26;97083.13;;;-1.46;76.22
84145;BME280;74264;48.988;12.040;2024-01-16T01:46:54;97090.06;;;-1.46;75.70
84145;BME280;74264;48.988;12.040;2024-01-16T01:49:21;97090.19;;;-1.48;76.59
84145;BME280;74264;48.988;12.040;2024-01-16T01:51:48;97098.91;;;-1.49;76.67
84145;BME280;74264;48.988;12.040;2024-01-16T01:54:15;97102.66;;;-1.53;76.69
84145;BME280;74264;48.988;12.040;2024-01-16T01:56:44;97107.84;;;-1.53;77.14
84145;BME280;74264;48.988;12.040;2024-01-16T01:59:11;97106.31;;;-1.55;76.98
84145;BME280;74264;48.988;12.040;2024-01-16T02:01:37;97102.06;;;-1.56;77.11
84145;BME280;74264;48.988;12.040;2024-01-16T02:04:04;97105.38;;;-1.54;76.10
84145;BME280;74264;48.988;12.040;2024-01-16T02:06:29;97112.31;;;-1.55;76.66
84145;BME280;74264;48.988;12.040;2024-01-16T02:08:55;97108.22;;;-1.57;76.44
84145;BME280;74264;48.988;12.040;2024-01-16T02:11:21;97119.19;;;-1.54;75.73
84145;BME280;74264;48.988;12.040;2024-01-16T02:13:46;97123.22;;;-1.50;75.63
84145;BME280;74264;48.988;12.040;2024-01-16T02:16:18;97122.63;;;-1.53;76.35
84145;BME280;74264;48.988;12.040;2024-01-16T02:18:44;97122.69;;;-1.55;75.98
84145;BME280;74264;48.988;12.040;2024-01-16T02:21:10;97121.78;;;-1.54;75.69
84145;BME280;74264;48.988;12.040;2024-01-16T02:23:37;97125.22;;;-1.53;76.45
84145;BME280;74264;48.988;12.040;2024-01-16T02:26:02;97117.50;;;-1.55;76.48
84145;BME280;74264;48.988;12.040;2024-01-16T02:28:28;97122.94;;;-1.58;76.42
84145;BME280;74264;48.988;12.040;2024-01-16T02:30:54;97116.31;;;-1.62;76.61
84145;BME280;74264;48.988;12.040;2024-01-16T02:33:20;97112.19;;;-1.64;77.12
84145;BME280;74264;48.988;12.040;2024-01-16T02:35:45;97116.56;;;-1.65;76.60
84145;BME280;74264;48.988;12.040;2024-01-16T02:38:11;97115.84;;;-1.67;77.00
84145;BME280;74264;48.988;12.040;2024-01-16T02:40:36;97119.38;;;-1.68;77.22
84145;BME280;74264;48.988;12.040;2024-01-16T02:43:02;97128.09;;;-1.69;77.54
84145;BME280;74264;48.988;12.040;2024-01-16T02:45:28;97125.72;;;-1.72;77.47
84145;BME280;74264;48.988;12.040;2024-01-16T02:47:53;97125.00;;;-1.74;77.45
84145;BME280;74264;48.988;12.040;2024-01-16T02:50:19;97125.00;;;-1.74;77.37
84145;BME280;74264;48.988;12.040;2024-01-16T02:52:45;97134.56;;;-1.74;78.04
84145;BME280;74264;48.988;12.040;2024-01-16T02:55:11;97131.25;;;-1.76;77.62
84145;BME280;74264;48.988;12.040;2024-01-16T02:57:37;97138.91;;;-1.75;77.49
84145;BME280;74264;48.988;12.040;2024-01-16T03:00:02;97139.97;;;-1.77;77.75
84145;BME280;74264;48.988;12.040;2024-01-16T03:02:28;97140.91;;;-1.78;77.98
84145;BME280;74264;48.988;12.040;2024-01-16T03:04:55;97155.56;;;-1.77;77.38
84145;BME280;74264;48.988;12.040;2024-01-16T03:07:21;97156.28;;;-1.75;77.29
84145;BME280;74264;48.988;12.040;2024-01-16T03:09:46;97158.88;;;-1.75;77.82
84145;BME280;74264;48.988;12.040;2024-01-16T03:12:12;97155.56;;;-1.77;78.57
84145;BME280;74264;48.988;12.040;2024-01-16T03:14:37;97159.19;;;-1.80;78.29
84145;BME280;74264;48.988;12.040;2024-01-16T03:17:04;97160.81;;;-1.79;77.93
84145;BME280;74264;48.988;12.040;2024-01-16T03:19:30;97163.41;;;-1.79;77.76
84145;BME280;74264;48.988;12.040;2024-01-16T03:21:55;97166.84;;;-1.78;77.90
84145;BME280;74264;48.988;12.040;2024-01-16T03:24:21;97172.88;;;-1.78;77.65
84145;BME280;74264;48.988;12.040;2024-01-16T03:26:47;97179.00;;;-1.79;77.73
84145;BME280;74264;48.988;12.040;2024-01-16T03:29:13;97170.41;;;-1.79;78.06
84145;BME280;74264;48.988;12.040;2024-01-16T03:31:39;97182.53;;;-1.80;77.82
84145;BME280;74264;48.988;12.040;2024-01-16T03:34:04;97184.28;;;-1.80;77.35
84145;BME280;74264;48.988;12.040;2024-01-16T03:36:30;97178.31;;;-1.81;77.32
84145;BME280;74264;48.988;12.040;2024-01-16T03:38:56;97179.22;;;-1.82;76.88
84145;BME280;74264;48.988;12.040;2024-01-16T03:41:22;97183.50;;;-1.81;77.37
84145;BME280;74264;48.988;12.040;2024-01-16T03:43:47;97181.81;;;-1.82;77.00
84145;BME280;74264;48.988;12.040;2024-01-16T03:46:13;97187.00;;;-1.82;77.03
84145;BME280;74264;48.988;12.040;2024-01-16T03:48:39;97190.22;;;-1.78;77.67
84145;BME280;74264;48.988;12.040;2024-01-16T03:51:05;97182.75;;;-1.83;77.85
84145;BME280;74264;48.988;12.040;2024-01-16T03:53:32;97177.06;;;-1.88;77.76
84145;BME280;74264;48.988;12.040;2024-01-16T03:55:58;97177.19;;;-1.89;77.29
84145;BME280;74264;48.988;12.040;2024-01-16T03:58:23;97174.81;;;-1.92;77.29
84145;BME280;74264;48.988;12.040;2024-01-16T04:00:49;97179.28;;;-1.94;78.15
84145;BME280;74264;48.988;12.040;2024-01-16T04:03:18;97177.94;;;-2.00;77.84
84145;BME280;74264;48.988;12.040;2024-01-16T04:05:44;97178.88;;;-2.01;77.61
84145;BME280;74264;48.988;12.040;2024-01-16T04:08:10;97179.09;;;-2.04;78.26
84145;BME280;74264;48.988;12.040;2024-01-16T04:10:37;97178.25;;;-2.05;77.64
84145;BME280;74264;48.988;12.040;2024-01-16T04:13:03;97175.78;;;-2.06;77.28
84145;BME280;74264;48.988;12.040;2024-01-16T04:15:29;97186.16;;;-2.06;77.26
84145;BME280;74264;48.988;12.040;2024-01-16T04:17:54;97191.34;;;-2.06;77.91
84145;BME280;74264;48.988;12.040;2024-01-16T04:20:20;97198.19;;;-2.05;77.47
84145;BME280;74264;48.988;12.040;2024-01-16T04:22:46;97198.19;;;-2.05;77.72
84145;BME280;74264;48.988;12.040;2024-01-16T04:25:12;97199.97;;;-2.06;77.65
84145;BME280;74264;48.988;12.040;2024-01-16T04:27:38;97200.06;;;-2.07;77.28
84145;BME280;74264;48.988;12.040;2024-01-16T04:30:04;97198.28;;;-2.07;77.39
84145;BME280;74264;48.988;12.040;2024-01-16T04:32:30;97204.31;;;-2.06;77.24
84145;BME280;74264;48.988;12.040;2024-01-16T04:34:56;97200.19;;;-2.09;77.76
84145;BME280;74264;48.988;12.040;2024-01-16T04:37:22;97199.47;;;-2.11;77.55
84145;BME280;74264;48.988;12.040;2024-01-16T04:39:47;97203.81;;;-2.11;78.10
84145;BME280;74264;48.988;12.040;2024-01-16T04:42:13;97211.81;;;-2.14;77.46
84145;BME280;74264;48.988;12.040;2024-01-16T04:44:39;97204.84;;;-2.14;77.14
84145;BME280;74264;48.988;12.040;2024-01-16T04:47:04;97189.41;;;-2.15;77.44
84145;BME280;74264;48.988;12.040;2024-01-16T04:49:30;97194.69;;;-2.17;77.59
84145;BME280;74264;48.988;12.040;2024-01-16T04:51:55;97200.81;;;-2.18;77.83
84145;BME280;74264;48.988;12.040;2024-01-16T04:54:21;97200.00;;;-2.18;77.95
84145;BME280;74264;48.988;12.040;2024-01-16T04:56:47;97199.88;;;-2.17;77.27
84145;BME280;74264;48.988;12.040;2024-01-16T04:59:12;97201.75;;;-2.19;76.82
84145;BME280;74264;48.988;12.040;2024-01-16T05:01:38;97200.81;;;-2.18;77.11
84145;BME280;74264;48.988;12.040;2024-01-16T05:04:03;97199.28;;;-2.20;76.70
84145;BME280;74264;48.988;12.040;2024-01-16T05:06:30;97205.31;;;-2.20;77.01
84145;BME280;74264;48.988;12.040;2024-01-16T05:08:55;97197.72;;;-2.23;76.59
84145;BME280;74264;48.988;12.040;2024-01-16T05:11:21;97198.56;;;-2.22;76.23
84145;BME280;74264;48.988;12.040;2024-01-16T05:13:47;97202.06;;;-2.23;76.16
84145;BME280;74264;48.988;12.040;2024-01-16T05:16:13;97202.28;;;-2.26;77.11
84145;BME280;74264;48.988;12.040;2024-01-16T05:18:41;97208.44;;;-2.27;76.57
84145;BME280;74264;48.988;12.040;2024-01-16T05:21:08;97212.88;;;-2.29;77.43
84145;BME280;74264;48.988;12.040;2024-01-16T05:23:34;97212.06;;;-2.30;77.28
84145;BME280;74264;48.988;12.040;2024-01-16T05:25:59;97214.25;;;-2.36;76.57
84145;BME280;74264;48.988;12.040;2024-01-16T05:28:25;97214.34;;;-2.38;76.21
84145;BME280;74264;48.988;12.040;2024-01-16T05:30:51;97216.91;;;-2.38;76.72
84145;BME280;74264;48.988;12.040;2024-01-16T05:33:16;97222.22;;;-2.39;76.06
84145;BME280;74264;48.988;12.040;2024-01-16T05:35:42;97231.75;;;-2.40;75.85
84145;BME280;74264;48.988;12.040;2024-01-16T05:38:07;97233.72;;;-2.43;76.21
84145;BME280;74264;48.988;12.040;2024-01-16T05:40:33;97225.22;;;-2.45;75.99
84145;BME280;74264;48.988;12.040;2024-01-16T05:42:59;97230.63;;;-2.48;75.66
84145;BME280;74264;48.988;12.040;2024-01-16T05:45:25;97228.88;;;-2.48;75.90
84145;BME280;74264;48.988;12.040;2024-01-16T05:47:50;97221.09;;;-2.48;75.59
84145;BME280;74264;48.988;12.040;2024-01-16T05:50:16;97231.34;;;-2.46;75.73
84145;BME280;74264;48.988;12.040;2024-01-16T05:52:44;97234.06;;;-2.48;76.17
84145;BME280;74264;48.988;12.040;2024-01-16T05:55:10;97236.75;;;-2.49;76.04
84145;BME280;74264;48.988;12.040;2024-01-16T05:57:36;97236.75;;;-2.49;75.82
84145;BME280;74264;48.988;12.040;2024-01-16T06:00:03;97242.88;;;-2.50;75.61
84145;BME280;74264;48.988;12.040;2024-01-16T06:02:31;97236.75;;;-2.49;75.54
84145;BME280;74264;48.988;12.040;2024-01-16T06:04:57;97235.81;;;-2.48;75.70
84145;BME280;74264;48.988;12.040;2024-01-16T06:07:23;97243.69;;;-2.50;75.11
84145;BME280;74264;48.988;12.040;2024-01-16T06:09:48;97243.28;;;-2.56;74.99
84145;BME280;74264;48.988;12.040;2024-01-16T06:12:14;97258.00;;;-2.57;75.12
84145;BME280;74264;48.988;12.040;2024-01-16T06:14:40;97257.69;;;-2.65;75.10
84145;BME280;74264;48.988;12.040;2024-01-16T06:17:05;97260.59;;;-2.69;75.48
84145;BME280;74264;48.988;12.040;2024-01-16T06:19:32;97265.88;;;-2.71;74.86
84145;BME280;74264;48.988;12.040;2024-01-16T06:21:58;97257.19;;;-2.70;74.72
84145;BME280;74264;48.988;12.040;2024-01-16T06:24:24;97259.16;;;-2.73;75.38
84145;BME280;74264;48.988;12.040;2024-01-16T06:26:50;97262.88;;;-2.77;75.39
84145;BME280;74264;48.988;12.040;2024-01-16T06:29:16;97263.88;;;-2.80;74.79
84145;BME280;74264;48.988;12.040;2024-01-16T06:31:41;97260.69;;;-2.83;74.27
84145;BME280;74264;48.988;12.040;2024-01-16T06:34:07;97255.91;;;-2.89;74.72
84145;BME280;74264;48.988;12.040;2024-01-16T06:36:32;97259.66;;;-2.93;75.29
84145;BME280;74264;48.988;12.040;2024-01-16T06:38:58;97260.56;;;-2.94;74.32
84145;BME280;74264;48.988;12.040;2024-01-16T06:41:24;97249.56;;;-2.98;74.73
84145;BME280;74264;48.988;12.040;2024-01-16T06:43:49;97252.56;;;-3.04;74.66
84145;BME280;74264;48.988;12.040;2024-01-16T06:46:15;97251.03;;;-3.07;74.80
84145;BME280;74264;48.988;12.040;2024-01-16T06:48:41;97252.25;;;-3.12;74.56
84145;BME280;74264;48.988;12.040;2024-01-16T06:51:06;97251.81;;;-3.19;75.38
84145;BME280;74264;48.988;12.040;2024-01-16T06:53:33;97253.78;;;-3.22;75.46
84145;BME280;74264;48.988;12.040;2024-01-16T06:55:59;97257.41;;;-3.25;75.66
84145;BME280;74264;48.988;12.040;2024-01-16T06:58:24;97262.59;;;-3.25;75.05
84145;BME280;74264;48.988;12.040;2024-01-16T07:00:50;97262.78;;;-3.28;75.77
84145;BME280;74264;48.988;12.040;2024-01-16T07:03:16;97262.16;;;-3.31;75.90
84145;BME280;74264;48.988;12.040;2024-01-16T07:05:42;97257.81;;;-3.31;75.63
84145;BME280;74264;48.988;12.040;2024-01-16T07:08:09;97262.25;;;-3.33;75.46
84145;BME280;74264;48.988;12.040;2024-01-16T07:10:34;97260.69;;;-3.35;75.28
84145;BME280;74264;48.988;12.040;2024-01-16T07:13:01;97271.34;;;-3.40;75.64
84145;BME280;74264;48.988;12.040;2024-01-16T07:15:27;97271.63;;;-3.44;75.43
84145;BME280;74264;48.988;12.040;2024-01-16T07:17:52;97266.56;;;-3.46;75.53
84145;BME280;74264;48.988;12.040;2024-01-16T07:20:18;97260.25;;;-3.42;75.22
84145;BME280;74264;48.988;12.040;2024-01-16T07:22:44;97254.13;;;-3.41;75.45
84145;BME280;74264;48.988;12.040;2024-01-16T07:25:09;97254.97;;;-3.40;76.18
84145;BME280;74264;48.988;12.040;2024-01-16T07:27:35;97253.34;;;-3.41;75.48
84145;BME280;74264;48.988;12.040;2024-01-16T07:30:01;97262.22;;;-3.45;75.91
84145;BME280;74264;48.988;12.040;2024-01-16T07:32:29;97254.63;;;-3.48;75.63
84145;BME280;74264;48.988;12.040;2024-01-16T07:34:55;97259.69;;;-3.47;75.94
84145;BME280;74264;48.988;12.040;2024-01-16T07:37:21;97256.09;;;-3.44;75.91
84145;BME280;74264;48.988;12.040;2024-01-16T07:39:46;97256.94;;;-3.44;75.64
84145;BME280;74264;48.988;12.040;2024-01-16T07:42:12;97259.19;;;-3.52;76.19
84145;BME280;74264;48.988;12.040;2024-01-16T07:44:38;97256.78;;;-3.55;75.45
84145;BME280;74264;48.988;12.040;2024-01-16T07:47:04;97258.13;;;-3.62;76.09
84145;BME280;74264;48.988;12.040;2024-01-16T07:49:30;97258.19;;;-3.63;75.64
84145;BME280;74264;48.988;12.040;2024-01-16T07:51:56;97264.16;;;-3.75;75.88
84145;BME280;74264;48.988;12.040;2024-01-16T07:54:21;97265.38;;;-3.81;76.13
84145;BME280;74264;48.988;12.040;2024-01-16T07:56:47;97267.00;;;-3.80;76.18
84145;BME280;74264;48.988;12.040;2024-01-16T07:59:13;97269.22;;;-3.74;75.92
84145;BME280;74264;48.988;12.040;2024-01-16T08:01:39;97262.94;;;-3.70;75.96
84145;BME280;74264;48.988;12.040;2024-01-16T08:04:05;97271.84;;;-3.61;75.51
84145;BME280;74264;48.988;12.040;2024-01-16T08:06:31;97275.44;;;-3.50;75.97
84145;BME280;74264;48.988;12.040;2024-01-16T08:08:57;97268.13;;;-3.43;75.04
84145;BME280;74264;48.988;12.040;2024-01-16T08:11:23;97276.66;;;-3.29;74.90
84145;BME280;74264;48.988;12.040;2024-01-16T08:13:49;97275.00;;;-3.17;75.02
84145;BME280;74264;48.988;12.040;2024-01-16T08:16:14;97275.66;;;-3.14;74.24
84145;BME280;74264;48.988;12.040;2024-01-16T08:18:40;97275.13;;;-3.06;74.02
84145;BME280;74264;48.988;12.040;2024-01-16T08:21:05;97274.44;;;-3.08;74.36
84145;BME280;74264;48.988;12.040;2024-01-16T08:23:34;97274.44;;;-3.08;73.78
84145;BME280;74264;48.988;12.040;2024-01-16T08:25:59;97275.34;;;-3.09;73.26
84145;BME280;74264;48.988;12.040;2024-01-16T08:28:27;97279.50;;;-3.07;73.67
84145;BME280;74264;48.988;12.040;2024-01-16T08:30:52;97282.00;;;-3.05;73.33
84145;BME280;74264;48.988;12.040;2024-01-16T08:33:19;97282.34;;;-2.97;73.57
84145;BME280;74264;48.988;12.040;2024-01-16T08:35:44;97286.34;;;-2.93;72.77
84145;BME280;74264;48.988;12.040;2024-01-16T08:38:10;97280.03;;;-2.89;72.90
84145;BME280;74264;48.988;12.040;2024-01-16T08:40:36;97275.81;;;-2.90;73.52
84145;BME280;74264;48.988;12.040;2024-01-16T08:43:02;97284.00;;;-2.83;72.69
84145;BME280;74264;48.988;12.040;2024-01-16T08:45:29;97277.56;;;-2.90;72.70
84145;BME280;74264;48.988;12.040;2024-01-16T08:47:55;97271.03;;;-2.83;73.13
84145;BME280;74264;48.988;12.040;2024-01-16T08:50:20;97277.28;;;-2.86;72.90
84145;BME280;74264;48.988;12.040;2024-01-16T08:52:46;97274.59;;;-2.72;72.97
84145;BME280;74264;48.988;12.040;2024-01-16T08:55:12;97273.34;;;-2.66;72.94
84145;BME280;74264;48.988;12.040;2024-01-16T08:57:38;97275.53;;;-2.60;72.95
84145;BME280;74264;48.988;12.040;2024-01-16T09:00:07;97269.19;;;-2.56;72.64
84145;BME280;74264;48.988;12.040;2024-01-16T09:02:35;97261.94;;;-2.51;72.59
84145;BME280;74264;48.988;12.040;2024-01-16T09:05:00;97265.66;;;-2.43;72.91
84145;BME280;74264;48.988;12.040;2024-01-16T09:07:26;97267.41;;;-2.43;72.48
84145;BME280;74264;48.988;12.040;2024-01-16T09:09:52;97262.16;;;-2.42;72.35
84145;BME280;74264;48.988;12.040;2024-01-16T09:12:19;97261.41;;;-2.31;71.66
84145;BME280;74264;48.988;12.040;2024-01-16T09:14:44;97257.69;;;-2.27;70.78
84145;BME280;74264;48.988;12.040;2024-01-16T09:17:10;97260.66;;;-2.08;71.15
84145;BME280;74264;48.988;12.040;2024-01-16T09:19:36;97258.59;;;-2.03;70.38
84145;BME280;74264;48.988;12.040;2024-01-16T09:22:01;97263.84;;;-1.92;69.87
84145;BME280;74264;48.988;12.040;2024-01-16T09:24:28;97261.41;;;-1.82;69.70
84145;BME280;74264;48.988;12.040;2024-01-16T09:26:54;97265.41;;;-1.66;70.18
84145;BME280;74264;48.988;12.040;2024-01-16T09:29:19;97258.69;;;-1.68;69.92
84145;BME280;74264;48.988;12.040;2024-01-16T09:31:47;97252.59;;;-1.56;69.93
84145;BME280;74264;48.988;12.040;2024-01-16T09:34:12;97262.13;;;-1.68;69.80
84145;BME280;74264;48.988;12.040;2024-01-16T09:36:39;97264.44;;;-1.52;69.13
84145;BME280;74264;48.988;12.040;2024-01-16T09:39:06;97256.59;;;-1.63;70.12
84145;BME280;74264;48.988;12.040;2024-01-16T09:41:45;97256.09;;;-1.68;70.29
84145;BME280;74264;48.988;12.040;2024-01-16T09:44:11;97252.22;;;-1.63;70.48
84145;BME280;74264;48.988;12.040;2024-01-16T09:46:38;97255.38;;;-1.47;70.22
84145;BME280;74264;48.988;12.040;2024-01-16T09:49:05;97257.75;;;-1.44;69.54
84145;BME280;74264;48.988;12.040;2024-01-16T09:51:31;97263.59;;;-1.53;70.31
84145;BME280;74264;48.988;12.040;2024-01-16T09:53:56;97257.13;;;-1.47;69.75
84145;BME280;74264;48.988;12.040;2024-01-16T09:56:23;97261.88;;;-1.65;70.21
84145;BME280;74264;48.988;12.040;2024-01-16T09:58:58;97255.19;;;-1.80;70.48
84145;BME280;74264;48.988;12.040;2024-01-16T10:01:28;97251.56;;;-1.90;70.85
84145;BME280;74264;48.988;12.040;2024-01-16T10:03:55;97257.28;;;-1.85;71.24
84145;BME280;74264;48.988;12.040;2024-01-16T10:06:22;97247.94;;;-1.87;71.15
84145;BME280;74264;48.988;12.040;2024-01-16T10:08:49;97248.28;;;-1.92;70.72
84145;BME280;74264;48.988;12.040;2024-01-16T10:11:15;97242.75;;;-1.87;70.40
84145;BME280;74264;48.988;12.040;2024-01-16T10:13:40;97238.91;;;-1.82;70.91
84145;BME280;74264;48.988;12.040;2024-01-16T10:16:06;97235.69;;;-1.85;70.49
84145;BME280;74264;48.988;12.040;2024-01-16T10:18:32;97243.78;;;-1.77;70.27
84145;BME280;74264;48.988;12.040;2024-01-16T10:21:04;97247.25;;;-1.66;69.57
84145;BME280;74264;48.988;12.040;2024-01-16T10:23:31;97238.75;;;-1.68;69.21
84145;BME280;74264;48.988;12.040;2024-01-16T10:26:11;97251.22;;;-1.73;69.83
84145;BME280;74264;48.988;12.040;2024-01-16T10:28:41;97253.19;;;-1.76;69.88
84145;BME280;74264;48.988;12.040;2024-01-16T10:31:11;97253.25;;;-1.89;70.58
84145;BME280;74264;48.988;12.040;2024-01-16T10:33:39;97259.94;;;-1.74;69.30
84145;BME280;74264;48.988;12.040;2024-01-16T10:36:13;97271.41;;;-1.89;69.15
84145;BME280;74264;48.988;12.040;2024-01-16T10:38:41;97268.88;;;-1.78;69.03
84145;BME280;74264;48.988;12.040;2024-01-16T10:41:14;97270.94;;;-1.70;69.15
84145;BME280;74264;48.988;12.040;2024-01-16T10:43:41;97275.72;;;-1.77;69.28
84145;BME280;74264;48.988;12.040;2024-01-16T10:46:14;97276.13;;;-1.70;69.56
84145;BME280;74264;48.988;12.040;2024-01-16T10:48:42;97285.06;;;-1.74;68.71
84145;BME280;74264;48.988;12.040;2024-01-16T10:51:15;97279.88;;;-1.74;69.11
84145;BME280;74264;48.988;12.040;2024-01-16T10:53:44;97286.88;;;-1.64;68.88
84145;BME280;74264;48.988;12.040;2024-01-16T10:56:12;97283.16;;;-1.60;68.13
84145;BME280;74264;48.988;12.040;2024-01-16T10:58:41;97283.88;;;-1.58;67.89
84145;BME280;74264;48.988;12.040;2024-01-16T11:01:13;97288.03;;;-1.55;67.99
84145;BME280;74264;48.988;12.040;2024-01-16T11:03:47;97288.09;;;-1.44;67.45
84145;BME280;74264;48.988;12.040;2024-01-16T11:06:15;97286.53;;;-1.47;67.11
84145;BME280;74264;48.988;12.040;2024-01-16T11:08:41;97287.53;;;-1.37;67.34
84145;BME280;74264;48.988;12.040;2024-01-16T11:11:08;97296.47;;;-1.17;66.85
84145;BME280;74264;48.988;12.040;2024-01-16T11:13:35;97276.75;;;-1.20;66.77
84145;BME280;74264;48.988;12.040;2024-01-16T11:16:04;97270.94;;;-1.23;67.18
84145;BME280;74264;48.988;12.040;2024-01-16T11:18:31;97278.25;;;-1.28;66.52
84145;BME280;74264;48.988;12.040;2024-01-16T11:21:02;97287.13;;;-1.20;66.55
84145;BME280;74264;48.988;12.040;2024-01-16T11:23:29;97276.03;;;-1.22;67.06
84145;BME280;74264;48.988;12.040;2024-01-16T11:25:55;97272.00;;;-1.26;66.84
84145;BME280;74264;48.988;12.040;2024-01-16T11:28:27;97268.19;;;-1.33;67.13
84145;BME280;74264;48.988;12.040;2024-01-16T11:30:53;97271.41;;;-1.29;66.65
84145;BME280;74264;48.988;12.040;2024-01-16T11:35:57;97260.03;;;-1.05;66.46
84145;BME280;74264;48.988;12.040;2024-01-16T11:38:24;97264.06;;;-1.01;67.22
84145;BME280;74264;48.988;12.040;2024-01-16T11:40:55;97258.59;;;-0.85;65.73
84145;BME280;74264;48.988;12.040;2024-01-16T11:43:34;97252.91;;;-0.79;66.10
84145;BME280;74264;48.988;12.040;2024-01-16T11:46:02;97250.66;;;-0.83;66.28
84145;BME280;74264;48.988;12.040;2024-01-16T11:48:28;97249.00;;;-0.84;66.57
84145;BME280;74264;48.988;12.040;2024-01-16T11:50:53;97248.44;;;-0.66;65.68
84145;BME280;74264;48.988;12.040;2024-01-16T11:53:38;97239.03;;;-0.56;65.72
84145;BME280;74264;48.988;12.040;2024-01-16T12:01:43;97218.81;;;-0.63;65.83
84145;BME280;74264;48.988;12.040;2024-01-16T12:04:10;97209.34;;;-0.53;66.08
84145;BME280;74264;48.988;12.040;2024-01-16T12:06:36;97215.03;;;-0.59;65.59
84145;BME280;74264;48.988;12.040;2024-01-16T12:09:16;97210.63;;;-0.59;66.29
84145;BME280;74264;48.988;12.040;2024-01-16T12:11:44;97199.78;;;-0.42;65.50
84145;BME280;74264;48.988;12.040;2024-01-16T12:14:11;97206.03;;;-0.33;65.31
84145;BME280;74264;48.988;12.040;2024-01-16T12:16:37;97200.81;;;-0.11;64.71
84145;BME280;74264;48.988;12.040;2024-01-16T12:19:07;97195.16;;;-0.05;65.20
84145;BME280;74264;48.988;12.040;2024-01-16T12:21:44;97198.94;;;-0.09;63.54
84145;BME280;74264;48.988;12.040;2024-01-16T12:24:11;97195.63;;;0.00;62.62
84145;BME280;74264;48.988;12.040;2024-01-16T12:26:37;97190.38;;;0.22;62.52
84145;BME280;74264;48.988;12.040;2024-01-16T12:29:04;97178.44;;;0.51;61.21
84145;BME280;74264;48.988;12.040;2024-01-16T12:31:30;97179.31;;;0.30;61.64
84145;BME280;74264;48.988;12.040;2024-01-16T12:34:08;97174.25;;;0.28;62.62
84145;BME280;74264;48.988;12.040;2024-01-16T12:36:35;97176.94;;;0.38;62.17
84145;BME280;74264;48.988;12.040;2024-01-16T12:39:01;97172.66;;;0.48;62.29
84145;BME280;74264;48.988;12.040;2024-01-16T12:41:34;97165.47;;;0.40;64.05
84145;BME280;74264;48.988;12.040;2024-01-16T12:44:03;97164.94;;;0.46;64.05
84145;BME280;74264;48.988;12.040;2024-01-16T12:46:28;97160.91;;;0.53;64.71
84145;BME280;74264;48.988;12.040;2024-01-16T12:49:03;97156.69;;;0.41;64.31
84145;BME280;74264;48.988;12.040;2024-01-16T12:51:29;97157.34;;;0.54;63.18
84145;BME280;74264;48.988;12.040;2024-01-16T12:54:10;97153.28;;;0.61;63.97
84145;BME280;74264;48.988;12.040;2024-01-16T12:56:36;97142.16;;;0.59;61.66